UKV5035 RJTT-RJSN
Flight info
| Callsign | UKV5035 |
|---|---|
| Flight time | 0h 39m |
| Altitude | 23000 |
| Route | OPPAR JYOGA Y371 KALON Y37 GOSEN |
| Aircraft | A321/M-SDE3FGHIRWY/LB1 |
Departure
| Time | 2026-05-06 18:50 |
|---|---|
| Airport | Tokyo Haneda International Airport (RJTT) |
Arrival
| Time | 2026-05-06 19:29 |
|---|---|
| Airport | Niigata Airport (RJSN) |
| Time | Latitude | Longitude | Altitude | Speed | Heading |
|---|---|---|---|---|---|
| 2026-05-06 18:31 | 35.54728 | 139.78313 | 24 ft | 0 kts | 20° |
| 2026-05-06 18:35 | 35.54722 | 139.78311 | 24 ft | 4 kts | 20° |
| 2026-05-06 18:35 | 35.54697 | 139.78299 | 26 ft | 4 kts | 20° |
| 2026-05-06 18:36 | 35.54677 | 139.78290 | 26 ft | 4 kts | 24° |
| 2026-05-06 18:36 | 35.54655 | 139.78273 | 26 ft | 4 kts | 54° |
| 2026-05-06 18:36 | 35.54648 | 139.78250 | 28 ft | 4 kts | 130° |
| 2026-05-06 18:36 | 35.54669 | 139.78233 | 29 ft | 4 kts | 150° |
| 2026-05-06 18:37 | 35.54691 | 139.78218 | 24 ft | 1 kts | 150° |
| 2026-05-06 18:40 | 35.54687 | 139.78221 | 26 ft | 2 kts | 152° |
| 2026-05-06 18:40 | 35.54667 | 139.78234 | 26 ft | 6 kts | 152° |
| 2026-05-06 18:41 | 35.54595 | 139.78227 | 25 ft | 14 kts | 216° |
| 2026-05-06 18:41 | 35.54610 | 139.78149 | 25 ft | 10 kts | 325° |
| 2026-05-06 18:41 | 35.54664 | 139.78108 | 26 ft | 8 kts | 329° |
| 2026-05-06 18:41 | 35.54712 | 139.78074 | 24 ft | 8 kts | 329° |
| 2026-05-06 18:42 | 35.54834 | 139.77986 | 24 ft | 29 kts | 330° |
| 2026-05-06 18:42 | 35.54994 | 139.77875 | 24 ft | 24 kts | 330° |
| 2026-05-06 18:42 | 35.55129 | 139.77778 | 24 ft | 21 kts | 330° |
| 2026-05-06 18:42 | 35.55252 | 139.77689 | 23 ft | 20 kts | 329° |
| 2026-05-06 18:43 | 35.55366 | 139.77612 | 23 ft | 18 kts | 333° |
| 2026-05-06 18:43 | 35.55470 | 139.77543 | 25 ft | 16 kts | 327° |
| 2026-05-06 18:43 | 35.55560 | 139.77475 | 25 ft | 14 kts | 326° |
| 2026-05-06 18:43 | 35.55638 | 139.77414 | 23 ft | 13 kts | 327° |
| 2026-05-06 18:44 | 35.55712 | 139.77365 | 23 ft | 13 kts | 331° |
| 2026-05-06 18:44 | 35.55789 | 139.77310 | 24 ft | 12 kts | 329° |
| 2026-05-06 18:44 | 35.55860 | 139.77262 | 25 ft | 11 kts | 338° |
| 2026-05-06 18:44 | 35.55936 | 139.77287 | 23 ft | 14 kts | 31° |
| 2026-05-06 18:45 | 35.56025 | 139.77360 | 23 ft | 15 kts | 34° |
| 2026-05-06 18:45 | 35.56109 | 139.77430 | 24 ft | 14 kts | 34° |
| 2026-05-06 18:45 | 35.56185 | 139.77495 | 23 ft | 13 kts | 35° |
| 2026-05-06 18:45 | 35.56250 | 139.77561 | 23 ft | 12 kts | 56° |
| 2026-05-06 18:46 | 35.56241 | 139.77651 | 26 ft | 10 kts | 139° |
| 2026-05-06 18:46 | 35.56174 | 139.77708 | 23 ft | 12 kts | 134° |
| 2026-05-06 18:46 | 35.56164 | 139.77794 | 23 ft | 11 kts | 68° |
| 2026-05-06 18:46 | 35.56209 | 139.77881 | 23 ft | 12 kts | 59° |
| 2026-05-06 18:47 | 35.56250 | 139.77968 | 25 ft | 11 kts | 59° |
| 2026-05-06 18:47 | 35.56288 | 139.78050 | 25 ft | 11 kts | 62° |
| 2026-05-06 18:47 | 35.56327 | 139.78131 | 23 ft | 14 kts | 58° |
| 2026-05-06 18:47 | 35.56377 | 139.78235 | 23 ft | 14 kts | 60° |
| 2026-05-06 18:48 | 35.56423 | 139.78333 | 23 ft | 13 kts | 60° |
| 2026-05-06 18:48 | 35.56467 | 139.78427 | 23 ft | 14 kts | 60° |
| 2026-05-06 18:48 | 35.56515 | 139.78528 | 23 ft | 13 kts | 58° |
| 2026-05-06 18:48 | 35.56557 | 139.78623 | 24 ft | 12 kts | 71° |
| 2026-05-06 18:49 | 35.56527 | 139.78701 | 25 ft | 13 kts | 147° |
| 2026-05-06 18:49 | 35.56283 | 139.78874 | 26 ft | 77 kts | 149° |
| 2026-05-06 18:49 | 35.55618 | 139.79346 | 24 ft | 141 kts | 150° |
| 2026-05-06 18:49 | 35.54640 | 139.80042 | 233 ft | 170 kts | 150° |
| 2026-05-06 18:50 | 35.53644 | 139.80734 | 1102 ft | 161 kts | 152° |
| 2026-05-06 18:50 | 35.52664 | 139.81408 | 1819 ft | 163 kts | 152° |
| 2026-05-06 18:50 | 35.51657 | 139.82170 | 2176 ft | 180 kts | 143° |
| 2026-05-06 18:50 | 35.50720 | 139.83342 | 2370 ft | 205 kts | 135° |
| 2026-05-06 18:51 | 35.49695 | 139.84700 | 2578 ft | 230 kts | 136° |
| 2026-05-06 18:51 | 35.48542 | 139.86218 | 2912 ft | 254 kts | 136° |
| 2026-05-06 18:51 | 35.47314 | 139.87840 | 3516 ft | 264 kts | 136° |
| 2026-05-06 18:51 | 35.46169 | 139.89625 | 4264 ft | 273 kts | 121° |
| 2026-05-06 18:52 | 35.45620 | 139.91890 | 4991 ft | 285 kts | 96° |
| 2026-05-06 18:52 | 35.45878 | 139.94288 | 5710 ft | 294 kts | 70° |
| 2026-05-06 18:52 | 35.46969 | 139.96415 | 6444 ft | 298 kts | 43° |
| 2026-05-06 18:52 | 35.48703 | 139.97779 | 7163 ft | 298 kts | 16° |
| 2026-05-06 18:53 | 35.50738 | 139.98109 | 7888 ft | 294 kts | 350° |
| 2026-05-06 18:53 | 35.52656 | 139.97367 | 8609 ft | 288 kts | 324° |
| 2026-05-06 18:53 | 35.54115 | 139.95754 | 9362 ft | 281 kts | 300° |
| 2026-05-06 18:53 | 35.54900 | 139.93605 | 10096 ft | 276 kts | 278° |
| 2026-05-06 18:54 | 35.54926 | 139.91267 | 10749 ft | 276 kts | 257° |
| 2026-05-06 18:54 | 35.54195 | 139.89098 | 11418 ft | 279 kts | 236° |
| 2026-05-06 18:54 | 35.53037 | 139.87089 | 11673 ft | 299 kts | 240° |
| 2026-05-06 18:54 | 35.52019 | 139.84746 | 11801 ft | 322 kts | 243° |
| 2026-05-06 18:55 | 35.50971 | 139.82257 | 11999 ft | 340 kts | 243° |
| 2026-05-06 18:55 | 35.49873 | 139.79650 | 12512 ft | 347 kts | 243° |
| 2026-05-06 18:55 | 35.48525 | 139.77171 | 13122 ft | 354 kts | 226° |
| 2026-05-06 18:55 | 35.46487 | 139.75443 | 13708 ft | 363 kts | 207° |
| 2026-05-06 18:56 | 35.44043 | 139.74508 | 14273 ft | 372 kts | 193° |
| 2026-05-06 18:56 | 35.41452 | 139.74154 | 14849 ft | 376 kts | 189° |
| 2026-05-06 18:56 | 35.38869 | 139.73645 | 15450 ft | 375 kts | 198° |
| 2026-05-06 18:56 | 35.36441 | 139.72505 | 16061 ft | 373 kts | 210° |
| 2026-05-06 18:57 | 35.34248 | 139.70814 | 16671 ft | 372 kts | 220° |
| 2026-05-06 18:57 | 35.32200 | 139.68871 | 17299 ft | 374 kts | 220° |
| 2026-05-06 18:57 | 35.30127 | 139.66939 | 17913 ft | 376 kts | 219° |
| 2026-05-06 18:57 | 35.28025 | 139.65006 | 18492 ft | 378 kts | 219° |
| 2026-05-06 18:58 | 35.25939 | 139.63099 | 18993 ft | 380 kts | 219° |
| 2026-05-06 18:58 | 35.23811 | 139.61154 | 19525 ft | 382 kts | 219° |
| 2026-05-06 18:58 | 35.21678 | 139.59203 | 20051 ft | 384 kts | 219° |
| 2026-05-06 18:58 | 35.19746 | 139.56980 | 20527 ft | 382 kts | 234° |
| 2026-05-06 18:59 | 35.18536 | 139.54114 | 21089 ft | 380 kts | 252° |
| 2026-05-06 18:59 | 35.18184 | 139.50914 | 21549 ft | 386 kts | 271° |
| 2026-05-06 18:59 | 35.18774 | 139.47688 | 21917 ft | 397 kts | 290° |
| 2026-05-06 18:59 | 35.20313 | 139.44840 | 22323 ft | 411 kts | 310° |
| 2026-05-06 19:00 | 35.22680 | 139.42795 | 22737 ft | 427 kts | 332° |
| 2026-05-06 19:00 | 35.25614 | 139.41917 | 23036 ft | 444 kts | 352° |
| 2026-05-06 19:00 | 35.28742 | 139.42370 | 23096 ft | 464 kts | 14° |
| 2026-05-06 19:00 | 35.30715 | 139.43414 | 23099 ft | 473 kts | 26° |
| 2026-05-06 19:01 | 35.34304 | 139.46626 | 23094 ft | 481 kts | 40° |
| 2026-05-06 19:01 | 35.36654 | 139.49481 | 23109 ft | 481 kts | 45° |
| 2026-05-06 19:01 | 35.38997 | 139.52366 | 23089 ft | 474 kts | 39° |
| 2026-05-06 19:01 | 35.41710 | 139.54597 | 23091 ft | 468 kts | 21° |
| 2026-05-06 19:02 | 35.44787 | 139.55789 | 23095 ft | 461 kts | 5° |
| 2026-05-06 19:02 | 35.47956 | 139.56099 | 23097 ft | 456 kts | 356° |
| 2026-05-06 19:02 | 35.51131 | 139.56228 | 23094 ft | 457 kts | 358° |
| 2026-05-06 19:02 | 35.54310 | 139.56472 | 23078 ft | 458 kts | 360° |
| 2026-05-06 19:03 | 35.57498 | 139.56799 | 23083 ft | 458 kts | 1° |
| 2026-05-06 19:03 | 35.60674 | 139.57163 | 23087 ft | 459 kts | 1° |
| 2026-05-06 19:03 | 35.63851 | 139.57532 | 23091 ft | 458 kts | 1° |
| 2026-05-06 19:03 | 35.67029 | 139.57888 | 23090 ft | 458 kts | 1° |
| 2026-05-06 19:04 | 35.70162 | 139.58218 | 23095 ft | 458 kts | 0° |
| 2026-05-06 19:04 | 35.73336 | 139.58538 | 23104 ft | 458 kts | 0° |
| 2026-05-06 19:04 | 35.76511 | 139.58848 | 23109 ft | 458 kts | 0° |
| 2026-05-06 19:04 | 35.79687 | 139.59158 | 23127 ft | 458 kts | 1° |
| 2026-05-06 19:05 | 35.82858 | 139.59468 | 23135 ft | 457 kts | 1° |
| 2026-05-06 19:05 | 35.86023 | 139.59781 | 23139 ft | 456 kts | 1° |
| 2026-05-06 19:05 | 35.89180 | 139.60096 | 23138 ft | 455 kts | 1° |
| 2026-05-06 19:05 | 35.92336 | 139.60415 | 23137 ft | 454 kts | 1° |
| 2026-05-06 19:06 | 35.95487 | 139.60741 | 23134 ft | 453 kts | 1° |
| 2026-05-06 19:06 | 35.98627 | 139.61068 | 23139 ft | 453 kts | 1° |
| 2026-05-06 19:06 | 36.01761 | 139.61392 | 23132 ft | 452 kts | 1° |
| 2026-05-06 19:06 | 36.04897 | 139.61715 | 23133 ft | 451 kts | 1° |
| 2026-05-06 19:07 | 36.08026 | 139.62040 | 23131 ft | 451 kts | 1° |
| 2026-05-06 19:07 | 36.10091 | 139.62257 | 23129 ft | 450 kts | 1° |
| 2026-05-06 19:07 | 36.14267 | 139.62692 | 23126 ft | 449 kts | 1° |
| 2026-05-06 19:07 | 36.17385 | 139.63014 | 23127 ft | 449 kts | 1° |
| 2026-05-06 19:08 | 36.20499 | 139.63332 | 23137 ft | 449 kts | 1° |
| 2026-05-06 19:08 | 36.23608 | 139.63652 | 23133 ft | 449 kts | 1° |
| 2026-05-06 19:08 | 36.26719 | 139.63975 | 23127 ft | 448 kts | 1° |
| 2026-05-06 19:08 | 36.29788 | 139.64295 | 23124 ft | 448 kts | 1° |
| 2026-05-06 19:09 | 36.32895 | 139.64619 | 23119 ft | 448 kts | 1° |
| 2026-05-06 19:09 | 36.35999 | 139.64947 | 23132 ft | 448 kts | 1° |
| 2026-05-06 19:09 | 36.39100 | 139.65273 | 23137 ft | 447 kts | 1° |
| 2026-05-06 19:09 | 36.42204 | 139.65597 | 23142 ft | 447 kts | 1° |
| 2026-05-06 19:10 | 36.45302 | 139.65918 | 23137 ft | 446 kts | 1° |
| 2026-05-06 19:10 | 36.48389 | 139.65968 | 23127 ft | 442 kts | 352° |
| 2026-05-06 19:10 | 36.51407 | 139.65391 | 23126 ft | 437 kts | 343° |
| 2026-05-06 19:10 | 36.54321 | 139.64349 | 23126 ft | 435 kts | 340° |
| 2026-05-06 19:11 | 36.57221 | 139.63278 | 23135 ft | 435 kts | 340° |
| 2026-05-06 19:11 | 36.60125 | 139.62213 | 23135 ft | 434 kts | 340° |
| 2026-05-06 19:11 | 36.63022 | 139.61153 | 23138 ft | 434 kts | 340° |
| 2026-05-06 19:11 | 36.65919 | 139.60092 | 23138 ft | 434 kts | 340° |
| 2026-05-06 19:12 | 36.68816 | 139.59028 | 23136 ft | 434 kts | 340° |
| 2026-05-06 19:12 | 36.71707 | 139.57965 | 23136 ft | 433 kts | 340° |
| 2026-05-06 19:12 | 36.74596 | 139.56901 | 23147 ft | 433 kts | 340° |
| 2026-05-06 19:12 | 36.77487 | 139.55836 | 23141 ft | 432 kts | 340° |
| 2026-05-06 19:13 | 36.80370 | 139.54773 | 23142 ft | 432 kts | 340° |
| 2026-05-06 19:13 | 36.83214 | 139.53723 | 23141 ft | 432 kts | 340° |
| 2026-05-06 19:13 | 36.86100 | 139.52658 | 23140 ft | 432 kts | 340° |
| 2026-05-06 19:13 | 36.88965 | 139.51600 | 23143 ft | 425 kts | 339° |
| 2026-05-06 19:14 | 36.91785 | 139.50559 | 23120 ft | 421 kts | 339° |
| 2026-05-06 19:14 | 36.94587 | 139.49521 | 23126 ft | 420 kts | 339° |
| 2026-05-06 19:14 | 36.97386 | 139.48482 | 23124 ft | 419 kts | 339° |
| 2026-05-06 19:14 | 37.00182 | 139.47444 | 22970 ft | 420 kts | 339° |
| 2026-05-06 19:15 | 37.03008 | 139.46394 | 21867 ft | 427 kts | 340° |
| 2026-05-06 19:15 | 37.05882 | 139.45326 | 20944 ft | 430 kts | 340° |
| 2026-05-06 19:15 | 37.08744 | 139.44267 | 20234 ft | 428 kts | 340° |
| 2026-05-06 19:15 | 37.11589 | 139.43214 | 19541 ft | 425 kts | 340° |
| 2026-05-06 19:16 | 37.14413 | 139.42169 | 18884 ft | 422 kts | 340° |
| 2026-05-06 19:16 | 37.17194 | 139.41141 | 17823 ft | 410 kts | 341° |
| 2026-05-06 19:16 | 37.19915 | 139.40132 | 16451 ft | 405 kts | 340° |
| 2026-05-06 19:16 | 37.22533 | 139.39160 | 15804 ft | 384 kts | 340° |
| 2026-05-06 19:17 | 37.25006 | 139.38246 | 15401 ft | 358 kts | 340° |
| 2026-05-06 19:17 | 37.27347 | 139.37377 | 14925 ft | 351 kts | 340° |
| 2026-05-06 19:17 | 37.29692 | 139.36494 | 14422 ft | 353 kts | 340° |
| 2026-05-06 19:17 | 37.32040 | 139.35608 | 13923 ft | 352 kts | 340° |
| 2026-05-06 19:18 | 37.34406 | 139.34713 | 13286 ft | 355 kts | 340° |
| 2026-05-06 19:18 | 37.36763 | 139.33825 | 12769 ft | 352 kts | 340° |
| 2026-05-06 19:18 | 37.39101 | 139.32948 | 12242 ft | 350 kts | 340° |
| 2026-05-06 19:18 | 37.41434 | 139.32073 | 11710 ft | 348 kts | 340° |
| 2026-05-06 19:19 | 37.43750 | 139.31205 | 11190 ft | 347 kts | 340° |
| 2026-05-06 19:19 | 37.46063 | 139.30341 | 10782 ft | 342 kts | 341° |
| 2026-05-06 19:19 | 37.48352 | 139.29761 | 10655 ft | 331 kts | 352° |
| 2026-05-06 19:19 | 37.49865 | 139.29689 | 10574 ft | 325 kts | 358° |
| 2026-05-06 19:20 | 37.52083 | 139.29745 | 10454 ft | 313 kts | 358° |
| 2026-05-06 19:20 | 37.54226 | 139.29797 | 10250 ft | 304 kts | 358° |
| 2026-05-06 19:20 | 37.56322 | 139.29843 | 10184 ft | 300 kts | 358° |
| 2026-05-06 19:20 | 37.59090 | 139.29895 | 10050 ft | 300 kts | 358° |
| 2026-05-06 19:21 | 37.61188 | 139.29931 | 9623 ft | 303 kts | 357° |
| 2026-05-06 19:21 | 37.62606 | 139.29956 | 9372 ft | 300 kts | 358° |
| 2026-05-06 19:21 | 37.64687 | 139.29996 | 8958 ft | 299 kts | 358° |
| 2026-05-06 19:21 | 37.66753 | 139.30041 | 8650 ft | 295 kts | 358° |
| 2026-05-06 19:22 | 37.68810 | 139.30085 | 8280 ft | 294 kts | 358° |
| 2026-05-06 19:22 | 37.70845 | 139.30126 | 7897 ft | 293 kts | 358° |
| 2026-05-06 19:22 | 37.72864 | 139.30166 | 7589 ft | 289 kts | 358° |
| 2026-05-06 19:22 | 37.74846 | 139.30206 | 7205 ft | 288 kts | 358° |
| 2026-05-06 19:23 | 37.76838 | 139.30247 | 6673 ft | 286 kts | 358° |
| 2026-05-06 19:23 | 37.78820 | 139.30290 | 6223 ft | 281 kts | 359° |
| 2026-05-06 19:23 | 37.80757 | 139.30344 | 5833 ft | 274 kts | 359° |
| 2026-05-06 19:23 | 37.82647 | 139.30445 | 5458 ft | 268 kts | 0° |
| 2026-05-06 19:24 | 37.84491 | 139.30569 | 5095 ft | 262 kts | 1° |
| 2026-05-06 19:24 | 37.86289 | 139.30694 | 4734 ft | 256 kts | 1° |
| 2026-05-06 19:24 | 37.88037 | 139.30814 | 4354 ft | 248 kts | 1° |
| 2026-05-06 19:24 | 37.89714 | 139.30925 | 4010 ft | 241 kts | 1° |
| 2026-05-06 19:25 | 37.91358 | 139.30769 | 3671 ft | 230 kts | 344° |
| 2026-05-06 19:25 | 37.92775 | 139.30022 | 3359 ft | 218 kts | 326° |
| 2026-05-06 19:25 | 37.93908 | 139.28816 | 2981 ft | 211 kts | 309° |
| 2026-05-06 19:25 | 37.94694 | 139.27277 | 2492 ft | 207 kts | 293° |
| 2026-05-06 19:26 | 37.95065 | 139.25572 | 2104 ft | 192 kts | 276° |
| 2026-05-06 19:26 | 37.95132 | 139.23995 | 1862 ft | 166 kts | 272° |
| 2026-05-06 19:26 | 37.95189 | 139.22611 | 1624 ft | 151 kts | 272° |
| 2026-05-06 19:26 | 37.95240 | 139.21307 | 1420 ft | 146 kts | 271° |
| 2026-05-06 19:27 | 37.95289 | 139.20028 | 1225 ft | 145 kts | 271° |
| 2026-05-06 19:27 | 37.95338 | 139.18756 | 1033 ft | 145 kts | 271° |
| 2026-05-06 19:27 | 37.95383 | 139.17484 | 807 ft | 145 kts | 271° |
| 2026-05-06 19:27 | 37.95432 | 139.16212 | 585 ft | 144 kts | 271° |
| 2026-05-06 19:28 | 37.95479 | 139.14945 | 396 ft | 143 kts | 272° |
| 2026-05-06 19:28 | 37.95534 | 139.13680 | 244 ft | 144 kts | 271° |
| 2026-05-06 19:28 | 37.95579 | 139.12417 | 68 ft | 143 kts | 271° |
| 2026-05-06 19:28 | 37.95622 | 139.11263 | 28 ft | 107 kts | 272° |
| 2026-05-06 19:29 | 37.95640 | 139.10732 | 24 ft | 21 kts | 263° |
| 2026-05-06 19:29 | 37.95535 | 139.10674 | 27 ft | 16 kts | 175° |
| 2026-05-06 19:29 | 37.95477 | 139.10749 | 27 ft | 13 kts | 92° |
| 2026-05-06 19:29 | 37.95473 | 139.10880 | 24 ft | 16 kts | 93° |
| 2026-05-06 19:30 | 37.95470 | 139.10970 | 23 ft | 0 kts | 92° |
| 2026-05-06 19:30 | 37.95469 | 139.10977 | 23 ft | 2 kts | 92° |
| 2026-05-06 19:30 | 37.95469 | 139.10997 | 23 ft | 3 kts | 93° |
| 2026-05-06 19:30 | 37.95467 | 139.11032 | 24 ft | 4 kts | 93° |
| 2026-05-06 19:31 | 37.95465 | 139.11074 | 24 ft | 5 kts | 93° |
| 2026-05-06 19:31 | 37.95464 | 139.11118 | 25 ft | 5 kts | 92° |
| 2026-05-06 19:31 | 37.95459 | 139.11233 | 25 ft | 8 kts | 93° |
| 2026-05-06 19:32 | 37.95434 | 139.11253 | 24 ft | 6 kts | 195° |
| 2026-05-06 19:32 | 37.95376 | 139.11248 | 22 ft | 9 kts | 181° |
| 2026-05-06 19:32 | 37.95318 | 139.11246 | 19 ft | 0 kts | 182° |
| 2026-05-06 19:53 | 37.95337 | 139.11247 | 20 ft | 4 kts | 182° |
| 2026-05-06 19:53 | 37.95364 | 139.11248 | 21 ft | 4 kts | 182° |
| 2026-05-06 19:53 | 37.95391 | 139.11250 | 23 ft | 4 kts | 185° |
| 2026-05-06 19:53 | 37.95417 | 139.11254 | 23 ft | 4 kts | 195° |
| 2026-05-06 19:54 | 37.95442 | 139.11266 | 26 ft | 4 kts | 214° |
| 2026-05-06 19:54 | 37.95458 | 139.11289 | 25 ft | 3 kts | 264° |
| 2026-05-06 19:54 | 37.95458 | 139.11299 | 26 ft | 0 kts | 270° |
| 2026-05-06 19:56 | 37.95458 | 139.11296 | 24 ft | 1 kts | 270° |
| 2026-05-06 19:56 | 37.95458 | 139.11258 | 25 ft | 9 kts | 269° |
| 2026-05-06 19:56 | 37.95462 | 139.11176 | 25 ft | 10 kts | 273° |
| 2026-05-06 19:57 | 37.95466 | 139.11071 | 24 ft | 14 kts | 272° |
| 2026-05-06 19:57 | 37.95471 | 139.10931 | 23 ft | 17 kts | 272° |
| 2026-05-06 19:57 | 37.95476 | 139.10782 | 25 ft | 17 kts | 273° |
| 2026-05-06 19:57 | 37.95481 | 139.10634 | 26 ft | 17 kts | 272° |
| 2026-05-06 19:58 | 37.95487 | 139.10479 | 26 ft | 18 kts | 272° |
| 2026-05-06 19:58 | 37.95493 | 139.10320 | 29 ft | 17 kts | 273° |
| 2026-05-06 19:58 | 37.95499 | 139.10174 | 32 ft | 16 kts | 272° |
| 2026-05-06 19:58 | 37.95503 | 139.10028 | 33 ft | 17 kts | 272° |
| 2026-05-06 19:59 | 37.95508 | 139.09877 | 35 ft | 17 kts | 272° |
| 2026-05-06 19:59 | 37.95513 | 139.09739 | 39 ft | 15 kts | 272° |
| 2026-05-06 19:59 | 37.95521 | 139.09607 | 40 ft | 15 kts | 287° |
| 2026-05-06 19:59 | 37.95609 | 139.09571 | 42 ft | 14 kts | 2° |
| 2026-05-06 20:00 | 37.95687 | 139.09605 | 42 ft | 12 kts | 71° |
| 2026-05-06 20:00 | 37.95681 | 139.09676 | 41 ft | 0 kts | 91° |
| 2026-05-06 20:00 | 37.95680 | 139.09684 | 41 ft | 3 kts | 91° |
| 2026-05-06 20:01 | 37.95673 | 139.09858 | 41 ft | 54 kts | 94° |
| 2026-05-06 20:01 | 37.95645 | 139.10660 | 24 ft | 125 kts | 92° |
| 2026-05-06 20:01 | 37.95598 | 139.11981 | 167 ft | 163 kts | 93° |
| 2026-05-06 20:01 | 37.95548 | 139.13345 | 945 ft | 155 kts | 94° |
| 2026-05-06 20:02 | 37.95495 | 139.14714 | 1630 ft | 156 kts | 94° |
| 2026-05-06 20:02 | 37.95439 | 139.16124 | 2087 ft | 168 kts | 93° |
| 2026-05-06 20:02 | 37.95375 | 139.17700 | 2329 ft | 189 kts | 93° |
| 2026-05-06 20:02 | 37.95306 | 139.19462 | 2513 ft | 212 kts | 92° |
| 2026-05-06 20:03 | 37.95666 | 139.21355 | 2699 ft | 237 kts | 53° |
| 2026-05-06 20:03 | 37.96998 | 139.22657 | 3036 ft | 255 kts | 17° |
| 2026-05-06 20:03 | 37.98781 | 139.23039 | 3610 ft | 264 kts | 360° |
| 2026-05-06 20:03 | 38.00627 | 139.23028 | 4378 ft | 266 kts | 353° |
| 2026-05-06 20:04 | 38.02373 | 139.22374 | 5143 ft | 263 kts | 322° |
| 2026-05-06 20:04 | 38.03505 | 139.20601 | 5853 ft | 261 kts | 287° |
| 2026-05-06 20:04 | 38.03773 | 139.18338 | 6585 ft | 262 kts | 271° |
| 2026-05-06 20:04 | 38.03859 | 139.16017 | 7327 ft | 265 kts | 271° |
| 2026-05-06 20:05 | 38.03930 | 139.13670 | 8091 ft | 267 kts | 269° |
| 2026-05-06 20:05 | 38.03761 | 139.11338 | 8866 ft | 267 kts | 255° |
| 2026-05-06 20:05 | 38.03063 | 139.09182 | 9604 ft | 269 kts | 239° |
| 2026-05-06 20:05 | 38.01876 | 139.07319 | 10269 ft | 276 kts | 226° |
| 2026-05-06 20:06 | 38.00455 | 139.05533 | 10459 ft | 299 kts | 226° |
| 2026-05-06 20:06 | 37.98923 | 139.03605 | 10582 ft | 322 kts | 226° |
| 2026-05-06 20:06 | 37.97287 | 139.01542 | 10849 ft | 338 kts | 226° |
| 2026-05-06 20:06 | 37.95604 | 138.99423 | 11403 ft | 344 kts | 226° |
| 2026-05-06 20:07 | 37.94475 | 138.98004 | 11824 ft | 346 kts | 226° |
| 2026-05-06 20:07 | 37.92755 | 138.95843 | 12473 ft | 349 kts | 226° |
| 2026-05-06 20:07 | 37.91019 | 138.93663 | 13139 ft | 353 kts | 226° |
| 2026-05-06 20:07 | 37.89269 | 138.91463 | 13760 ft | 357 kts | 226° |
| 2026-05-06 20:08 | 37.87503 | 138.89242 | 13992 ft | 358 kts | 226° |
| 2026-05-06 20:08 | 37.85791 | 138.86920 | 14056 ft | 368 kts | 231° |
| 2026-05-06 20:08 | 37.84134 | 138.84375 | 14061 ft | 378 kts | 231° |
| 2026-05-06 20:08 | 37.82456 | 138.81795 | 14063 ft | 380 kts | 231° |
| 2026-05-06 20:09 | 37.80772 | 138.79206 | 14065 ft | 381 kts | 231° |
| 2026-05-06 20:09 | 37.79087 | 138.76619 | 14066 ft | 381 kts | 231° |
| 2026-05-06 20:09 | 37.77422 | 138.74066 | 14061 ft | 381 kts | 231° |
| 2026-05-06 20:09 | 37.75735 | 138.71482 | 14062 ft | 381 kts | 231° |
| 2026-05-06 20:10 | 37.74045 | 138.68901 | 14065 ft | 381 kts | 231° |
| 2026-05-06 20:10 | 37.72357 | 138.66322 | 14069 ft | 381 kts | 231° |
| 2026-05-06 20:10 | 37.70670 | 138.63741 | 14076 ft | 381 kts | 231° |
| 2026-05-06 20:10 | 37.68987 | 138.61164 | 14075 ft | 381 kts | 231° |
| 2026-05-06 20:11 | 37.67300 | 138.58583 | 14077 ft | 381 kts | 231° |
| 2026-05-06 20:11 | 37.65612 | 138.56005 | 14074 ft | 381 kts | 231° |
| 2026-05-06 20:11 | 37.63920 | 138.53426 | 14079 ft | 381 kts | 231° |
| 2026-05-06 20:11 | 37.62225 | 138.50850 | 14078 ft | 382 kts | 231° |
| 2026-05-06 20:12 | 37.60529 | 138.48270 | 14086 ft | 382 kts | 231° |
| 2026-05-06 20:12 | 37.58883 | 138.45640 | 14090 ft | 381 kts | 233° |
| 2026-05-06 20:12 | 37.57313 | 138.42948 | 14091 ft | 381 kts | 235° |
| 2026-05-06 20:12 | 37.55780 | 138.40215 | 14092 ft | 381 kts | 236° |
| 2026-05-06 20:13 | 37.54259 | 138.37473 | 14092 ft | 381 kts | 236° |
| 2026-05-06 20:13 | 37.52733 | 138.34741 | 14092 ft | 381 kts | 235° |
| 2026-05-06 20:13 | 37.51193 | 138.32016 | 14093 ft | 381 kts | 235° |
| 2026-05-06 20:13 | 37.49645 | 138.29305 | 14088 ft | 381 kts | 234° |
| 2026-05-06 20:14 | 37.48090 | 138.26598 | 14091 ft | 382 kts | 234° |
| 2026-05-06 20:14 | 37.46551 | 138.23932 | 14087 ft | 382 kts | 234° |
| 2026-05-06 20:14 | 37.44985 | 138.21225 | 14082 ft | 382 kts | 234° |
| 2026-05-06 20:14 | 37.43422 | 138.18524 | 14082 ft | 382 kts | 234° |
| 2026-05-06 20:15 | 37.41855 | 138.15817 | 14083 ft | 382 kts | 234° |
| 2026-05-06 20:15 | 37.40288 | 138.13111 | 14083 ft | 383 kts | 234° |
| 2026-05-06 20:15 | 37.38722 | 138.10402 | 14083 ft | 383 kts | 234° |
| 2026-05-06 20:15 | 37.37158 | 138.07691 | 14085 ft | 383 kts | 234° |
| 2026-05-06 20:16 | 37.35593 | 138.04980 | 14089 ft | 383 kts | 234° |
| 2026-05-06 20:16 | 37.34025 | 138.02272 | 14090 ft | 383 kts | 234° |
| 2026-05-06 20:16 | 37.32458 | 137.99567 | 14091 ft | 383 kts | 234° |
| 2026-05-06 20:16 | 37.30887 | 137.96860 | 14092 ft | 383 kts | 234° |
| 2026-05-06 20:17 | 37.29315 | 137.94159 | 14092 ft | 383 kts | 234° |
| 2026-05-06 20:17 | 37.27759 | 137.91493 | 14093 ft | 383 kts | 234° |
| 2026-05-06 20:17 | 37.26184 | 137.88794 | 14093 ft | 383 kts | 234° |
| 2026-05-06 20:17 | 37.24640 | 137.86072 | 14093 ft | 383 kts | 236° |
| 2026-05-06 20:18 | 37.23146 | 137.83310 | 14091 ft | 383 kts | 237° |
| 2026-05-06 20:18 | 37.21677 | 137.80523 | 14091 ft | 383 kts | 237° |
| 2026-05-06 20:18 | 37.20221 | 137.77734 | 14092 ft | 382 kts | 237° |
| 2026-05-06 20:18 | 37.18745 | 137.74957 | 14092 ft | 382 kts | 236° |
| 2026-05-06 20:19 | 37.17216 | 137.72220 | 14092 ft | 382 kts | 235° |
| 2026-05-06 20:19 | 37.15655 | 137.69522 | 14089 ft | 382 kts | 234° |
| 2026-05-06 20:19 | 37.14074 | 137.66834 | 14097 ft | 382 kts | 234° |
| 2026-05-06 20:19 | 37.12490 | 137.64150 | 14097 ft | 382 kts | 234° |
| 2026-05-06 20:20 | 37.10912 | 137.61462 | 14094 ft | 382 kts | 234° |
| 2026-05-06 20:20 | 37.09346 | 137.58772 | 14094 ft | 382 kts | 234° |
| 2026-05-06 20:20 | 37.07792 | 137.56090 | 14077 ft | 375 kts | 234° |
| 2026-05-06 20:20 | 37.06285 | 137.53488 | 13650 ft | 366 kts | 234° |
| 2026-05-06 20:21 | 37.04802 | 137.50925 | 12420 ft | 360 kts | 234° |
| 2026-05-06 20:21 | 37.03290 | 137.48609 | 11924 ft | 333 kts | 226° |
| 2026-05-06 20:21 | 37.01697 | 137.46680 | 11599 ft | 309 kts | 225° |
| 2026-05-06 20:21 | 37.00128 | 137.44764 | 11137 ft | 318 kts | 226° |
| 2026-05-06 20:22 | 36.98555 | 137.42830 | 10774 ft | 313 kts | 226° |
| 2026-05-06 20:22 | 36.97037 | 137.40967 | 10653 ft | 300 kts | 226° |
| 2026-05-06 20:22 | 36.95573 | 137.39176 | 10528 ft | 288 kts | 226° |
| 2026-05-06 20:22 | 36.94164 | 137.37458 | 10333 ft | 280 kts | 226° |
| 2026-05-06 20:23 | 36.92784 | 137.35774 | 10094 ft | 275 kts | 226° |
| 2026-05-06 20:23 | 36.91433 | 137.34125 | 9905 ft | 265 kts | 226° |
| 2026-05-06 20:23 | 36.90133 | 137.32540 | 9773 ft | 261 kts | 226° |
| 2026-05-06 20:23 | 36.88831 | 137.30956 | 9644 ft | 261 kts | 225° |
| 2026-05-06 20:24 | 36.87526 | 137.29371 | 9369 ft | 262 kts | 225° |
| 2026-05-06 20:24 | 36.86231 | 137.27799 | 8851 ft | 258 kts | 225° |
| 2026-05-06 20:24 | 36.84945 | 137.26241 | 8356 ft | 256 kts | 225° |
| 2026-05-06 20:24 | 36.83659 | 137.24698 | 7855 ft | 257 kts | 221° |
| 2026-05-06 20:25 | 36.82270 | 137.23357 | 7505 ft | 245 kts | 217° |
| 2026-05-06 20:25 | 36.80930 | 137.22093 | 6979 ft | 242 kts | 217° |
| 2026-05-06 20:25 | 36.79602 | 137.20836 | 6450 ft | 236 kts | 217° |
| 2026-05-06 20:25 | 36.78312 | 137.19613 | 5927 ft | 229 kts | 217° |
| 2026-05-06 20:26 | 36.77066 | 137.18434 | 5480 ft | 220 kts | 216° |
| 2026-05-06 20:26 | 36.75886 | 137.17317 | 5077 ft | 205 kts | 216° |
| 2026-05-06 20:26 | 36.74790 | 137.16276 | 4723 ft | 189 kts | 216° |
| 2026-05-06 20:26 | 36.73862 | 137.15394 | 4699 ft | 154 kts | 216° |
| 2026-05-06 20:27 | 36.73036 | 137.14612 | 4627 ft | 146 kts | 216° |
| 2026-05-06 20:27 | 36.72232 | 137.13854 | 4590 ft | 144 kts | 216° |
| 2026-05-06 20:27 | 36.71432 | 137.13099 | 4527 ft | 144 kts | 216° |
| 2026-05-06 20:27 | 36.70632 | 137.12346 | 4468 ft | 144 kts | 216° |
| 2026-05-06 20:28 | 36.69831 | 137.11595 | 4416 ft | 144 kts | 216° |
| 2026-05-06 20:28 | 36.69030 | 137.10843 | 4329 ft | 145 kts | 216° |
| 2026-05-06 20:28 | 36.68219 | 137.10084 | 4248 ft | 147 kts | 216° |
| 2026-05-06 20:28 | 36.67404 | 137.09320 | 4228 ft | 146 kts | 216° |
| 2026-05-06 20:29 | 36.66591 | 137.08556 | 4130 ft | 146 kts | 217° |
| 2026-05-06 20:29 | 36.65780 | 137.07794 | 4058 ft | 147 kts | 216° |
| 2026-05-06 20:29 | 36.64958 | 137.07023 | 3993 ft | 147 kts | 216° |
| 2026-05-06 20:29 | 36.64075 | 137.06382 | 3864 ft | 147 kts | 203° |
| 2026-05-06 20:30 | 36.63104 | 137.06004 | 3649 ft | 146 kts | 192° |
| 2026-05-06 20:30 | 36.61085 | 137.06045 | 3246 ft | 146 kts | 168° |
| 2026-05-06 20:30 | 36.60125 | 137.06449 | 3022 ft | 147 kts | 156° |
| 2026-05-06 20:31 | 36.59264 | 137.07095 | 2839 ft | 146 kts | 145° |
| 2026-05-06 20:31 | 36.58516 | 137.07963 | 2622 ft | 148 kts | 131° |
| 2026-05-06 20:31 | 36.57940 | 137.09013 | 2401 ft | 147 kts | 118° |
| 2026-05-06 20:31 | 36.57550 | 137.10188 | 2198 ft | 147 kts | 105° |
| 2026-05-06 20:32 | 36.57388 | 137.11439 | 2025 ft | 147 kts | 94° |
| 2026-05-06 20:32 | 36.57426 | 137.12708 | 1854 ft | 147 kts | 83° |
| 2026-05-06 20:32 | 36.57690 | 137.13942 | 1618 ft | 148 kts | 69° |
| 2026-05-06 20:32 | 36.58169 | 137.15081 | 1423 ft | 150 kts | 58° |
| 2026-05-06 20:33 | 36.58850 | 137.16079 | 1245 ft | 152 kts | 45° |
| 2026-05-06 20:33 | 36.59680 | 137.16870 | 992 ft | 150 kts | 34° |
| 2026-05-06 20:33 | 36.60622 | 137.17442 | 787 ft | 150 kts | 19° |
| 2026-05-06 20:33 | 36.61630 | 137.17777 | 544 ft | 148 kts | 14° |
| 2026-05-06 20:34 | 36.62631 | 137.18081 | 358 ft | 148 kts | 13° |
| 2026-05-06 20:34 | 36.63605 | 137.18378 | 216 ft | 146 kts | 13° |
| 2026-05-06 20:34 | 36.64556 | 137.18666 | 94 ft | 129 kts | 13° |
| 2026-05-06 20:34 | 36.65208 | 137.18851 | 92 ft | 54 kts | 14° |
| 2026-05-06 20:35 | 36.65488 | 137.18936 | 94 ft | 27 kts | 13° |
| 2026-05-06 20:35 | 36.65618 | 137.18995 | 94 ft | 19 kts | 38° |
| 2026-05-06 20:35 | 36.65698 | 137.19029 | 93 ft | 5 kts | 314° |
| 2026-05-06 20:35 | 36.65682 | 137.18994 | 93 ft | 6 kts | 206° |
| 2026-05-06 20:36 | 36.65631 | 137.18978 | 92 ft | 8 kts | 193° |
| 2026-05-06 20:36 | 36.65574 | 137.18962 | 94 ft | 9 kts | 193° |
| 2026-05-06 20:36 | 36.65512 | 137.18943 | 93 ft | 10 kts | 194° |
| 2026-05-06 20:36 | 36.65435 | 137.18919 | 92 ft | 13 kts | 193° |
| 2026-05-06 20:37 | 36.65342 | 137.18892 | 93 ft | 15 kts | 193° |
| 2026-05-06 20:37 | 36.65237 | 137.18862 | 90 ft | 17 kts | 193° |
| 2026-05-06 20:37 | 36.65117 | 137.18825 | 91 ft | 19 kts | 192° |
| 2026-05-06 20:37 | 36.64998 | 137.18787 | 92 ft | 16 kts | 194° |
| 2026-05-06 20:38 | 36.64900 | 137.18760 | 90 ft | 13 kts | 192° |
| 2026-05-06 20:38 | 36.64816 | 137.18735 | 91 ft | 11 kts | 194° |
| 2026-05-06 20:38 | 36.64749 | 137.18714 | 87 ft | 10 kts | 193° |
| 2026-05-06 20:38 | 36.64677 | 137.18693 | 90 ft | 11 kts | 193° |
| 2026-05-06 20:39 | 36.64600 | 137.18671 | 89 ft | 12 kts | 190° |
| 2026-05-06 20:39 | 36.64531 | 137.18714 | 90 ft | 12 kts | 117° |
| 2026-05-06 20:39 | 36.64473 | 137.18774 | 92 ft | 12 kts | 181° |
| 2026-05-06 20:39 | 36.64423 | 137.18816 | 91 ft | 0 kts | 129° |
| 2026-05-06 20:40 | 36.64418 | 137.18826 | 91 ft | 3 kts | 124° |
| 2026-05-06 20:40 | 36.64406 | 137.18848 | 93 ft | 0 kts | 124° |
| 2026-05-06 20:40 | 36.64406 | 137.18849 | 93 ft | 0 kts | 124° |